Time;durP1;ratioP1;P1;durP2;ratioP2;P2;SDS_P1;SDS_P2;PMS_P1;PMS_P2;Temp;Humidity;BMP_temperature;BMP_pressure;BME280_temperature;BME280_humidity;BME280_pressure;Samples;Min_cycle;Max_cycle;Signal;HPM_P1;HPM_P2
2021/04/09 00:02:10;;;;;;;9.50;8.43;;;5.90;99.90;;;;;;5004135;28;20667;-50
2021/04/09 00:04:37;;;;;;;9.00;7.97;;;5.80;99.90;;;;;;4979772;28;20198;-50
2021/04/09 00:07:03;;;;;;;14.93;9.23;;;5.90;99.90;;;;;;5019138;28;20208;-50
2021/04/09 00:09:29;;;;;;;13.27;10.10;;;5.80;99.90;;;;;;5000188;28;20228;-53
2021/04/09 00:11:56;;;;;;;10.80;8.90;;;5.90;99.90;;;;;;5004153;28;20303;-55
2021/04/09 00:14:22;;;;;;;11.10;9.33;;;5.90;99.90;;;;;;5001346;28;20205;-53
2021/04/09 00:16:48;;;;;;;12.73;8.87;;;5.90;99.90;;;;;;5003139;28;20242;-55
2021/04/09 00:19:19;;;;;;;11.20;9.60;;;5.90;99.90;;;;;;4983560;28;20201;-54
2021/04/09 00:21:45;;;;;;;12.67;8.90;;;5.90;99.90;;;;;;4995053;28;20287;-52
2021/04/09 00:24:13;;;;;;;13.83;9.00;;;5.90;99.90;;;;;;4997840;28;20200;-55
2021/04/09 00:26:39;;;;;;;11.30;9.30;;;5.90;99.90;;;;;;5001065;28;20969;-51
2021/04/09 00:29:06;;;;;;;10.13;9.03;;;5.90;99.90;;;;;;5003444;28;20211;-48
2021/04/09 00:31:32;;;;;;;13.03;9.37;;;5.90;99.90;;;;;;4999914;28;20216;-53
2021/04/09 00:33:59;;;;;;;10.77;9.53;;;5.90;99.90;;;;;;4987402;28;20205;-56
2021/04/09 00:36:26;;;;;;;13.13;8.67;;;5.90;99.90;;;;;;4989266;28;20550;-53
2021/04/09 00:38:53;;;;;;;14.80;10.00;;;5.90;99.90;;;;;;5002300;28;20295;-54
2021/04/09 00:41:19;;;;;;;11.00;8.50;;;5.80;99.90;;;;;;4999787;28;20216;-55
2021/04/09 00:43:45;;;;;;;10.67;8.73;;;5.80;99.90;;;;;;4995965;28;20201;-49
2021/04/09 00:46:12;;;;;;;14.83;8.57;;;5.90;99.90;;;;;;5001325;28;20207;-54
2021/04/09 00:48:38;;;;;;;13.53;9.23;;;5.90;99.90;;;;;;5000187;28;20200;-50
2021/04/09 00:51:06;;;;;;;10.70;8.93;;;5.90;99.90;;;;;;4984860;28;20307;-50
2021/04/09 00:53:35;;;;;;;11.33;9.30;;;5.90;99.90;;;;;;4995353;28;20227;-49
2021/04/09 00:56:03;;;;;;;11.53;9.30;;;5.90;99.90;;;;;;4999259;28;20201;-54
2021/04/09 00:58:30;;;;;;;11.27;9.43;;;5.90;99.90;;;;;;4999524;28;20200;-52
2021/04/09 01:00:56;;;;;;;11.83;9.13;;;5.90;99.90;;;;;;5003287;28;20221;-50
2021/04/09 01:03:22;;;;;;;11.27;8.27;;;5.90;99.90;;;;;;5000509;28;20197;-57
2021/04/09 01:05:52;;;;;;;11.40;9.27;;;5.80;99.90;;;;;;4985286;28;20300;-52
2021/04/09 01:08:18;;;;;;;11.37;8.70;;;5.90;99.90;;;;;;4997477;28;20283;-56
2021/04/09 01:10:45;;;;;;;10.27;8.93;;;5.90;99.90;;;;;;4999446;28;20228;-51
2021/04/09 01:13:11;;;;;;;10.57;8.90;;;5.90;99.90;;;;;;5001532;28;20212;-57
2021/04/09 01:15:37;;;;;;;13.43;8.70;;;5.90;99.90;;;;;;4993358;28;20351;-56
2021/04/09 01:18:10;;;;;;;10.30;8.30;;;5.90;99.90;;;;;;4996875;28;20200;-52
2021/04/09 01:21:00;;;;;;;11.50;9.13;;;5.90;99.90;;;;;;4998368;28;20523;-57
2021/04/09 01:23:39;;;;;;;14.00;9.40;;;5.90;99.90;;;;;;4980761;28;20343;-54
2021/04/09 01:27:08;;;;;;;14.23;9.97;;;5.80;99.90;;;;;;4998118;28;20200;-58
2021/04/09 01:30:11;;;;;;;11.73;8.30;;;5.90;99.90;;;;;;4999565;28;20438;-56
2021/04/09 01:32:38;;;;;;;9.67;8.23;;;5.90;99.90;;;;;;4999872;28;20200;-52
2021/04/09 01:35:08;;;;;;;12.63;9.77;;;5.80;99.90;;;;;;5003254;28;20574;-54
2021/04/09 01:37:39;;;;;;;14.47;9.13;;;5.80;99.90;;;;;;4982262;28;20288;-55
2021/04/09 01:40:10;;;;;;;14.83;9.30;;;5.80;99.90;;;;;;4995407;28;20216;-56
2021/04/09 01:42:38;;;;;;;12.50;8.33;;;5.80;99.90;;;;;;4998186;28;20196;-57
2021/04/09 01:45:06;;;;;;;11.70;8.87;;;5.80;99.90;;;;;;5003060;28;20291;-55
2021/04/09 01:47:34;;;;;;;14.27;8.70;;;5.80;99.90;;;;;;4999222;28;20189;-57
2021/04/09 01:50:03;;;;;;;11.93;8.77;;;5.80;99.90;;;;;;5002375;28;20617;-56
2021/04/09 01:52:34;;;;;;;11.50;9.33;;;5.80;99.90;;;;;;4993448;28;20225;-57
2021/04/09 01:55:03;;;;;;;11.77;9.03;;;5.80;99.90;;;;;;4989650;28;20209;-57
2021/04/09 01:57:30;;;;;;;12.73;8.40;;;5.80;99.90;;;;;;5001300;28;20292;-55
2021/04/09 01:59:59;;;;;;;12.50;9.37;;;5.80;99.90;;;;;;5006276;28;20860;-58
2021/04/09 02:02:25;;;;;;;10.13;9.00;;;5.80;99.90;;;;;;5003264;28;20247;-55
2021/04/09 02:04:52;;;;;;;10.17;9.10;;;5.70;99.90;;;;;;5006166;28;20291;-55
2021/04/09 02:07:20;;;;;;;12.57;8.60;;;5.70;99.90;;;;;;5004325;28;20192;-56
2021/04/09 02:09:47;;;;;;;14.00;9.50;;;5.70;99.90;;;;;;4988273;28;21181;-53
2021/04/09 02:12:16;;;;;;;15.20;9.67;;;5.60;99.90;;;;;;4998439;28;20223;-52
2021/04/09 02:14:43;;;;;;;12.23;9.37;;;5.60;99.90;;;;;;4992754;28;20200;-55
2021/04/09 02:17:10;;;;;;;12.20;9.20;;;5.60;99.90;;;;;;5001824;28;20228;-54
2021/04/09 02:19:37;;;;;;;14.53;9.57;;;5.50;99.90;;;;;;5002637;28;20213;-53
2021/04/09 02:22:03;;;;;;;12.43;9.80;;;5.50;99.90;;;;;;5006206;28;20197;-52
2021/04/09 02:24:30;;;;;;;11.33;9.47;;;5.50;99.90;;;;;;4985539;28;20220;-56
2021/04/09 02:26:57;;;;;;;11.63;9.33;;;5.40;99.90;;;;;;5003881;28;20204;-52
2021/04/09 02:29:23;;;;;;;10.23;8.13;;;5.40;99.90;;;;;;4997372;28;20235;-54
2021/04/09 02:31:50;;;;;;;13.43;8.53;;;5.40;99.90;;;;;;5004526;28;20225;-56
2021/04/09 02:34:16;;;;;;;11.30;8.90;;;5.30;99.90;;;;;;4995940;28;20673;-53
2021/04/09 02:36:43;;;;;;;11.77;9.43;;;5.30;99.90;;;;;;5003871;28;20189;-57
2021/04/09 02:39:12;;;;;;;11.83;8.53;;;5.30;99.90;;;;;;5005607;28;20270;-54
2021/04/09 02:41:43;;;;;;;10.10;8.67;;;5.30;99.90;;;;;;4977884;28;20661;-53
2021/04/09 02:44:11;;;;;;;14.23;9.90;;;5.30;99.90;;;;;;4996460;28;20972;-56
2021/04/09 02:46:43;;;;;;;12.30;8.87;;;5.30;99.90;;;;;;5000521;28;20216;-54
2021/04/09 02:49:13;;;;;;;11.20;9.67;;;5.30;99.90;;;;;;5001878;28;20200;-55
2021/04/09 02:51:41;;;;;;;13.00;8.67;;;5.30;99.90;;;;;;5005492;28;20216;-53
2021/04/09 02:54:11;;;;;;;14.23;10.27;;;5.30;99.90;;;;;;5001749;28;20207;-48
2021/04/09 02:56:40;;;;;;;16.17;8.83;;;5.20;99.90;;;;;;4978875;28;20614;-48
2021/04/09 02:59:09;;;;;;;12.17;9.13;;;5.20;99.90;;;;;;4995077;28;20227;-53
2021/04/09 03:01:36;;;;;;;11.87;9.60;;;5.20;99.90;;;;;;5005586;28;20259;-57
2021/04/09 03:04:04;;;;;;;11.80;9.00;;;5.10;99.90;;;;;;4991864;28;20259;-53
2021/04/09 03:06:30;;;;;;;12.10;8.83;;;5.10;99.90;;;;;;5000968;28;20201;-55
2021/04/09 03:08:57;;;;;;;9.83;8.40;;;5.10;99.90;;;;;;5002960;28;20205;-54
2021/04/09 03:11:24;;;;;;;16.03;9.47;;;5.00;99.90;;;;;;5003964;28;20481;-57
2021/04/09 03:13:51;;;;;;;16.67;10.00;;;5.00;99.90;;;;;;4974607;28;20209;-54
2021/04/09 03:16:19;;;;;;;15.63;9.47;;;5.00;99.90;;;;;;4996291;28;20204;-57
2021/04/09 03:18:46;;;;;;;15.37;9.53;;;5.00;99.90;;;;;;5000767;28;20627;-56
2021/04/09 03:21:12;;;;;;;11.87;8.67;;;4.90;99.90;;;;;;4995304;28;20209;-50
2021/04/09 03:23:38;;;;;;;13.80;10.00;;;4.90;99.90;;;;;;4993442;28;20205;-47
2021/04/09 03:26:04;;;;;;;13.60;9.37;;;4.90;99.90;;;;;;5004505;28;20611;-48
2021/04/09 03:28:31;;;;;;;9.83;8.80;;;4.90;99.90;;;;;;4977607;28;20201;-55
2021/04/09 03:30:57;;;;;;;13.37;9.30;;;4.90;99.90;;;;;;4995565;28;20875;-50
2021/04/09 03:33:24;;;;;;;15.20;10.20;;;4.90;99.90;;;;;;4996204;28;20204;-53
2021/04/09 03:35:51;;;;;;;14.27;9.70;;;4.80;99.90;;;;;;5001610;28;20216;-48
2021/04/09 03:38:18;;;;;;;13.23;9.63;;;4.80;99.90;;;;;;5004665;28;20212;-52
2021/04/09 03:40:44;;;;;;;14.07;10.27;;;4.90;99.90;;;;;;5000755;28;20225;-49
2021/04/09 03:43:12;;;;;;;12.67;9.23;;;4.90;99.90;;;;;;4983819;28;20209;-50
2021/04/09 03:45:39;;;;;;;14.47;10.03;;;4.90;99.90;;;;;;4995358;28;20201;-52
2021/04/09 03:48:07;;;;;;;14.00;10.90;;;4.90;99.90;;;;;;4999795;28;20255;-48
2021/04/09 03:50:33;;;;;;;12.13;9.60;;;4.90;99.90;;;;;;5000607;28;20236;-53
2021/04/09 03:53:00;;;;;;;13.70;9.17;;;4.90;99.90;;;;;;5002992;28;20705;-53
2021/04/09 03:55:26;;;;;;;13.70;8.90;;;4.90;99.90;;;;;;4992541;28;20284;-54
2021/04/09 03:57:52;;;;;;;12.43;10.33;;;4.90;99.90;;;;;;5001459;28;20262;-48
2021/04/09 04:00:20;;;;;;;12.90;9.63;;;4.90;99.90;;;;;;4981709;28;20227;-54
2021/04/09 04:02:46;;;;;;;10.57;8.70;;;4.90;99.90;;;;;;4992419;28;20203;-54
2021/04/09 04:05:15;;;;;;;10.77;8.93;;;4.80;99.90;;;;;;4998620;28;20212;-53
2021/04/09 04:07:41;;;;;;;14.40;9.00;;;4.90;99.90;;;;;;4995164;28;20197;-53
2021/04/09 04:10:09;;;;;;;17.63;9.90;;;4.90;99.90;;;;;;5004022;28;20220;-52
2021/04/09 04:12:35;;;;;;;17.67;9.53;;;4.90;99.90;;;;;;5000162;28;20686;-54
2021/04/09 04:15:01;;;;;;;12.77;9.70;;;4.90;99.90;;;;;;4985045;28;20204;-57
2021/04/09 04:17:27;;;;;;;13.63;10.10;;;4.90;99.90;;;;;;4990257;28;20251;-54
2021/04/09 04:19:53;;;;;;;13.63;9.17;;;4.90;99.90;;;;;;4998334;28;20850;-54
2021/04/09 04:22:20;;;;;;;14.33;10.73;;;4.90;99.90;;;;;;4998272;28;20689;-52
2021/04/09 04:24:46;;;;;;;14.37;10.40;;;4.90;99.90;;;;;;5001029;28;20197;-52
2021/04/09 04:27:13;;;;;;;14.93;10.07;;;4.90;99.90;;;;;;5003633;28;20658;-52
2021/04/09 04:29:39;;;;;;;14.77;10.00;;;4.90;99.90;;;;;;4982873;28;20328;-49
2021/04/09 04:32:06;;;;;;;15.63;10.70;;;4.90;99.90;;;;;;4996547;28;20216;-51
2021/04/09 04:34:32;;;;;;;16.63;11.40;;;4.90;99.90;;;;;;4995186;28;20668;-54
2021/04/09 04:36:58;;;;;;;17.57;10.37;;;4.90;99.90;;;;;;4997269;28;20228;-55
2021/04/09 04:39:25;;;;;;;11.77;9.37;;;4.90;99.90;;;;;;4984716;28;21504;-55
2021/04/09 04:41:52;;;;;;;15.47;9.37;;;4.90;99.90;;;;;;4997464;28;20642;-55
2021/04/09 04:44:19;;;;;;;14.00;9.83;;;4.90;99.90;;;;;;4990548;28;20196;-57
2021/04/09 04:46:45;;;;;;;13.63;9.00;;;5.00;99.90;;;;;;4984038;28;20213;-57
2021/04/09 04:49:11;;;;;;;15.07;9.27;;;5.00;99.90;;;;;;4994301;28;20583;-53
2021/04/09 04:51:38;;;;;;;14.47;10.47;;;4.90;99.90;;;;;;5001415;28;20281;-55
2021/04/09 04:54:04;;;;;;;13.90;9.70;;;4.90;99.90;;;;;;4997524;28;20211;-55
2021/04/09 04:56:31;;;;;;;14.10;10.17;;;5.00;99.90;;;;;;4997405;28;20203;-51
2021/04/09 04:58:57;;;;;;;13.47;10.03;;;5.00;99.90;;;;;;4989894;28;20223;-55
2021/04/09 05:01:23;;;;;;;13.27;9.57;;;5.00;99.90;;;;;;4982255;28;20972;-54
2021/04/09 05:03:49;;;;;;;18.17;11.27;;;5.00;99.90;;;;;;4989674;28;20688;-54
2021/04/09 05:06:16;;;;;;;12.83;8.87;;;5.00;99.90;;;;;;4990687;28;20393;-51
2021/04/09 05:08:42;;;;;;;14.50;10.20;;;5.00;99.90;;;;;;5009485;28;20208;-56
2021/04/09 05:11:09;;;;;;;13.87;9.73;;;5.00;99.90;;;;;;4992986;28;20893;-51
2021/04/09 05:13:36;;;;;;;18.57;11.40;;;5.00;99.90;;;;;;4995561;28;20279;-48
2021/04/09 05:16:02;;;;;;;18.07;10.13;;;5.10;99.90;;;;;;4994830;28;20283;-49
2021/04/09 05:18:28;;;;;;;17.07;11.00;;;5.00;99.90;;;;;;4982230;28;20572;-49
2021/04/09 05:20:54;;;;;;;14.60;9.10;;;5.10;99.90;;;;;;4991612;28;20588;-54
2021/04/09 05:23:21;;;;;;;11.17;8.77;;;5.10;99.90;;;;;;4997680;28;20279;-55
2021/04/09 05:25:47;;;;;;;16.30;9.93;;;5.10;99.90;;;;;;5001256;28;20207;-55
2021/04/09 05:28:13;;;;;;;11.50;7.70;;;5.10;99.90;;;;;;5001155;28;20188;-52
2021/04/09 05:30:40;;;;;;;16.63;10.50;;;5.10;99.90;;;;;;5001145;28;20339;-56
2021/04/09 05:33:06;;;;;;;13.17;10.20;;;5.10;99.90;;;;;;4985599;28;20353;-53
2021/04/09 05:35:32;;;;;;;11.93;9.00;;;5.10;99.90;;;;;;5006695;28;20299;-54
2021/04/09 05:37:58;;;;;;;14.37;8.83;;;5.20;99.90;;;;;;4997935;28;20278;-52
2021/04/09 05:40:25;;;;;;;22.90;11.50;;;5.20;99.90;;;;;;5000647;28;20266;-54
2021/04/09 05:42:59;;;;;;;16.73;10.47;;;5.20;99.90;;;;;;4996353;28;20201;-56
2021/04/09 05:45:26;;;;;;;12.60;9.93;;;5.20;99.90;;;;;;4994683;28;20201;-53
2021/04/09 05:47:54;;;;;;;14.87;10.00;;;5.20;99.90;;;;;;4988677;28;20284;-54
2021/04/09 05:50:20;;;;;;;17.30;10.37;;;5.20;99.90;;;;;;4996341;28;20220;-54
2021/04/09 05:52:48;;;;;;;21.03;12.23;;;5.30;99.90;;;;;;4999987;28;20243;-54
2021/04/09 05:55:14;;;;;;;16.77;10.60;;;5.30;99.90;;;;;;4994435;28;20208;-53
2021/04/09 05:57:40;;;;;;;13.23;10.30;;;5.30;99.90;;;;;;5003783;28;20203;-56
2021/04/09 06:00:08;;;;;;;12.40;9.97;;;5.30;99.90;;;;;;4998532;28;20208;-54
2021/04/09 06:02:35;;;;;;;19.77;11.27;;;5.30;99.90;;;;;;4998788;28;20209;-54
2021/04/09 06:05:02;;;;;;;14.07;10.00;;;5.30;99.90;;;;;;4974625;28;20881;-53
2021/04/09 06:07:28;;;;;;;17.10;10.60;;;5.30;99.90;;;;;;5000354;28;20193;-54
2021/04/09 06:09:54;;;;;;;10.20;8.43;;;5.30;99.90;;;;;;4992392;28;20233;-55
2021/04/09 06:12:21;;;;;;;11.23;8.63;;;5.40;99.90;;;;;;5004861;28;20224;-58
2021/04/09 06:14:47;;;;;;;15.67;8.80;;;5.40;99.90;;;;;;4999079;28;20197;-53
2021/04/09 06:17:14;;;;;;;18.77;11.13;;;5.30;99.90;;;;;;4997792;28;20196;-57
2021/04/09 06:19:40;;;;;;;15.47;8.90;;;5.30;99.90;;;;;;4985359;28;20268;-54
2021/04/09 06:22:07;;;;;;;13.87;10.33;;;5.40;99.90;;;;;;5017229;28;20201;-56
2021/04/09 06:24:33;;;;;;;10.67;7.60;;;5.40;99.90;;;;;;4997832;28;20214;-57
2021/04/09 06:26:59;;;;;;;13.57;9.77;;;5.40;99.90;;;;;;4996975;28;20204;-56
2021/04/09 06:29:25;;;;;;;14.80;9.53;;;5.40;99.90;;;;;;5001319;28;20233;-55
2021/04/09 06:31:51;;;;;;;16.60;10.07;;;5.50;99.90;;;;;;4999186;28;20307;-53
2021/04/09 06:34:18;;;;;;;14.13;9.33;;;5.50;99.90;;;;;;4999008;28;20197;-56
2021/04/09 06:36:44;;;;;;;15.50;9.80;;;5.50;99.90;;;;;;4983396;28;20239;-54
2021/04/09 06:39:11;;;;;;;18.53;8.50;;;5.60;99.90;;;;;;4994566;28;20284;-53
2021/04/09 06:41:39;;;;;;;19.17;11.90;;;5.50;99.90;;;;;;4997951;28;20243;-55
2021/04/09 06:44:06;;;;;;;14.87;9.90;;;5.60;99.90;;;;;;5001423;28;20814;-56
2021/04/09 06:46:33;;;;;;;9.67;8.43;;;5.60;99.90;;;;;;4994755;28;20208;-53
2021/04/09 06:49:00;;;;;;;14.40;9.57;;;5.60;99.90;;;;;;4992622;28;20232;-53
2021/04/09 06:51:28;;;;;;;21.80;10.20;;;5.60;99.90;;;;;;4976987;28;20213;-52
2021/04/09 06:53:55;;;;;;;13.87;9.23;;;5.70;99.90;;;;;;4999306;28;20205;-54
2021/04/09 06:56:24;;;;;;;16.50;9.67;;;5.80;99.90;;;;;;5003403;28;20219;-51
2021/04/09 06:58:51;;;;;;;14.30;10.07;;;5.70;99.90;;;;;;4989110;28;20209;-55
2021/04/09 07:01:20;;;;;;;16.60;10.30;;;5.70;99.90;;;;;;4996606;28;20303;-56
2021/04/09 07:03:47;;;;;;;22.20;10.93;;;5.70;99.90;;;;;;4994597;28;20291;-53
2021/04/09 07:06:13;;;;;;;18.30;12.07;;;5.80;99.90;;;;;;5003011;28;20188;-56
2021/04/09 07:08:39;;;;;;;14.00;9.57;;;5.90;99.90;;;;;;4986062;28;20577;-54
2021/04/09 07:11:06;;;;;;;17.60;11.47;;;5.90;99.90;;;;;;4994529;28;20227;-53
2021/04/09 07:13:33;;;;;;;15.33;10.40;;;5.90;99.90;;;;;;4995510;28;20238;-55
2021/04/09 07:16:09;;;;;;;13.13;9.57;;;6.00;99.90;;;;;;4994840;28;20230;-58
2021/04/09 07:18:51;;;;;;;12.13;8.17;;;6.00;99.90;;;;;;4996870;28;20248;-57
2021/04/09 07:21:27;;;;;;;12.10;9.43;;;6.00;99.90;;;;;;4995811;28;20946;-53
2021/04/09 07:24:19;;;;;;;14.17;10.07;;;6.10;99.90;;;;;;4985728;28;20557;-56
2021/04/09 07:26:47;;;;;;;13.53;9.80;;;6.10;99.90;;;;;;4998168;28;20205;-55
2021/04/09 07:29:36;;;;;;;11.73;9.30;;;6.20;99.90;;;;;;4990992;28;20213;-55
2021/04/09 07:32:28;;;;;;;19.20;9.57;;;6.30;99.90;;;;;;4992978;28;20220;-57
2021/04/09 07:34:55;;;;;;;14.70;8.90;;;6.30;99.90;;;;;;4996302;28;20200;-54
2021/04/09 07:37:23;;;;;;;16.43;9.20;;;6.40;99.90;;;;;;5001965;28;20674;-56
2021/04/09 07:39:54;;;;;;;14.00;9.50;;;6.50;99.90;;;;;;4978904;28;20249;-52
2021/04/09 07:42:29;;;;;;;16.50;9.57;;;6.50;99.90;;;;;;4992663;28;20742;-57
2021/04/09 07:44:59;;;;;;;18.97;11.60;;;6.50;99.90;;;;;;4994784;28;20212;-56
2021/04/09 07:47:27;;;;;;;15.47;9.07;;;6.60;99.90;;;;;;4996673;28;20200;-54
2021/04/09 07:50:01;;;;;;;15.97;11.00;;;6.70;99.90;;;;;;4986217;28;20231;-55
2021/04/09 07:52:39;;;;;;;13.47;9.47;;;6.80;99.90;;;;;;4992691;28;20224;-55
2021/04/09 07:55:18;;;;;;;14.23;10.00;;;6.90;99.90;;;;;;4978136;28;20906;-48
2021/04/09 07:57:45;;;;;;;10.43;8.23;;;7.00;99.90;;;;;;5012709;28;20307;-57
2021/04/09 08:00:26;;;;;;;13.07;8.77;;;7.00;99.90;;;;;;4996997;28;20944;-49
2021/04/09 08:02:54;;;;;;;14.30;9.03;;;7.20;99.90;;;;;;5001457;28;20211;-57
2021/04/09 08:05:23;;;;;;;11.47;7.97;;;7.30;99.90;;;;;;4995597;28;20292;-49
2021/04/09 08:07:50;;;;;;;12.80;10.20;;;7.30;99.90;;;;;;4988415;28;20696;-56
2021/04/09 08:10:19;;;;;;;14.20;10.07;;;7.40;99.90;;;;;;4994614;28;20224;-53
2021/04/09 08:12:51;;;;;;;14.53;10.10;;;7.50;99.90;;;;;;4998039;28;20294;-53
2021/04/09 08:15:20;;;;;;;13.77;9.67;;;7.50;99.90;;;;;;4997602;28;20212;-57
2021/04/09 08:17:59;;;;;;;18.27;11.03;;;7.40;99.90;;;;;;4985267;28;20201;-55
2021/04/09 08:20:26;;;;;;;14.83;9.83;;;7.40;99.90;;;;;;5002320;28;20300;-55
2021/04/09 08:22:54;;;;;;;14.00;9.03;;;7.50;99.90;;;;;;4992903;28;20209;-54
2021/04/09 08:25:21;;;;;;;11.47;9.07;;;7.60;99.90;;;;;;4977172;28;20213;-54
2021/04/09 08:27:47;;;;;;;13.77;9.93;;;7.70;99.90;;;;;;4989551;28;20208;-52
2021/04/09 08:30:15;;;;;;;13.33;9.13;;;7.80;99.90;;;;;;4993182;28;20582;-55
2021/04/09 08:32:41;;;;;;;10.53;7.60;;;7.80;99.90;;;;;;4990071;28;20236;-57
2021/04/09 08:35:10;;;;;;;13.10;9.33;;;7.90;99.90;;;;;;5003710;28;20196;-55
2021/04/09 08:37:37;;;;;;;13.03;8.43;;;7.90;99.90;;;;;;4994277;28;20696;-55
2021/04/09 08:40:05;;;;;;;12.80;9.23;;;8.00;99.90;;;;;;4981352;28;20239;-54
2021/04/09 08:42:34;;;;;;;14.97;9.20;;;8.10;99.90;;;;;;4996515;28;20197;-54
2021/04/09 08:45:01;;;;;;;13.93;9.73;;;8.20;99.90;;;;;;4998081;28;20319;-55
2021/04/09 08:47:29;;;;;;;14.87;9.13;;;8.30;99.90;;;;;;4992706;28;20287;-55
2021/04/09 08:49:56;;;;;;;12.87;8.90;;;8.30;99.90;;;;;;4996267;28;20213;-56
2021/04/09 08:52:25;;;;;;;9.77;7.50;;;8.40;99.90;;;;;;4996473;28;20240;-54
2021/04/09 08:54:53;;;;;;;13.93;8.17;;;8.50;99.90;;;;;;4983863;28;21568;-54
2021/04/09 08:57:27;;;;;;;14.13;8.93;;;8.50;99.90;;;;;;4994020;28;20204;-51
2021/04/09 09:00:18;;;;;;;14.90;9.57;;;8.60;99.90;;;;;;4992624;28;20220;-51
2021/04/09 09:02:48;;;;;;;11.27;7.90;;;8.80;99.90;;;;;;4985522;28;20291;-48
2021/04/09 09:05:16;;;;;;;12.13;9.10;;;8.80;99.90;;;;;;4999674;28;20212;-48
2021/04/09 09:08:07;;;;;;;13.07;9.00;;;8.80;99.90;;;;;;4994368;28;20296;-54
2021/04/09 09:10:55;;;;;;;11.57;8.20;;;8.90;99.90;;;;;;4989983;28;20760;-51
2021/04/09 09:13:29;;;;;;;12.20;8.07;;;8.90;99.90;;;;;;4995691;28;20201;-54
2021/04/09 09:16:12;;;;;;;14.97;8.60;;;8.90;99.90;;;;;;4991377;28;20213;-58
2021/04/09 09:18:48;;;;;;;13.37;8.50;;;9.00;99.90;;;;;;4987688;28;20221;-50
2021/04/09 09:21:36;;;;;;;12.17;8.23;;;9.10;99.90;;;;;;5003405;28;20765;-54
2021/04/09 09:24:15;;;;;;;11.67;8.30;;;9.10;99.90;;;;;;4987726;28;20252;-54
2021/04/09 09:26:43;;;;;;;14.70;8.20;;;9.10;99.90;;;;;;4976642;28;20358;-56
2021/04/09 09:29:15;;;;;;;10.03;7.87;;;9.20;99.90;;;;;;5002362;28;20569;-53
2021/04/09 09:31:43;;;;;;;10.77;8.63;;;9.20;99.90;;;;;;4994519;28;23501;-52
2021/04/09 09:34:38;;;;;;;15.77;10.27;;;9.30;99.90;;;;;;4998054;28;20669;-50
2021/04/09 09:37:07;;;;;;;9.30;6.30;;;9.50;99.90;;;;;;5003387;28;20563;-54
2021/04/09 09:39:35;;;;;;;13.80;8.43;;;9.60;99.90;;;;;;4989011;28;20953;-55
2021/04/09 09:42:02;;;;;;;16.57;8.97;;;9.50;99.90;;;;;;4984466;28;20208;-56
2021/04/09 09:44:43;;;;;;;14.33;8.40;;;9.60;99.90;;;;;;4996055;28;20196;-53
2021/04/09 09:47:25;;;;;;;11.77;7.87;;;9.60;99.90;;;;;;4992824;28;20681;-51
2021/04/09 09:50:16;;;;;;;14.70;8.30;;;9.70;99.90;;;;;;4991433;28;20291;-53
2021/04/09 09:52:47;;;;;;;12.43;7.43;;;9.70;99.90;;;;;;4994918;28;20250;-55
2021/04/09 09:55:16;;;;;;;12.03;7.70;;;9.70;99.90;;;;;;4999206;28;20204;-53
2021/04/09 09:57:46;;;;;;;11.07;7.60;;;9.50;99.90;;;;;;4977529;28;20229;-57
2021/04/09 10:00:14;;;;;;;11.27;8.13;;;9.50;99.90;;;;;;4998478;28;20217;-52
2021/04/09 10:02:42;;;;;;;8.63;6.53;;;9.50;99.90;;;;;;4993717;28;20192;-54
2021/04/09 10:05:09;;;;;;;13.67;9.33;;;9.50;99.90;;;;;;4994894;28;20254;-55
2021/04/09 10:07:37;;;;;;;14.17;10.37;;;9.50;99.90;;;;;;4991160;28;20213;-48
2021/04/09 10:10:05;;;;;;;11.63;7.20;;;9.60;99.90;;;;;;4995448;28;20232;-51
2021/04/09 10:12:32;;;;;;;11.17;7.93;;;9.70;99.90;;;;;;4977195;28;20460;-57
2021/04/09 10:14:58;;;;;;;10.60;7.60;;;9.70;99.90;;;;;;4999316;28;20228;-53
2021/04/09 10:17:24;;;;;;;11.40;8.80;;;9.70;99.90;;;;;;4994446;28;20689;-52
2021/04/09 10:20:01;;;;;;;11.07;6.63;;;9.80;99.90;;;;;;4986854;28;20239;-57
2021/04/09 10:22:28;;;;;;;12.97;7.30;;;9.80;99.90;;;;;;4994479;28;20208;-55
2021/04/09 10:24:54;;;;;;;10.40;6.37;;;9.80;99.90;;;;;;4991907;28;20712;-49
2021/04/09 10:27:21;;;;;;;9.23;7.77;;;9.80;99.90;;;;;;4996692;28;20654;-53
2021/04/09 10:29:48;;;;;;;9.87;6.60;;;9.80;99.90;;;;;;4984848;28;21016;-56
2021/04/09 10:32:16;;;;;;;7.03;6.43;;;9.70;99.90;;;;;;4999460;28;20224;-53
2021/04/09 10:34:46;;;;;;;9.93;6.50;;;9.70;99.90;;;;;;5001996;28;20948;-54
2021/04/09 10:37:22;;;;;;;9.00;6.20;;;9.80;99.90;;;;;;5001143;28;20201;-49
2021/04/09 10:39:49;;;;;;;9.10;6.00;;;9.80;99.90;;;;;;5000686;28;20247;-56
2021/04/09 10:42:16;;;;;;;7.97;6.70;;;9.80;99.90;;;;;;4995519;28;20212;-57
2021/04/09 10:44:42;;;;;;;7.13;5.97;;;9.90;99.90;;;;;;4981428;28;20288;-57
2021/04/09 10:47:10;;;;;;;10.53;6.90;;;9.90;99.90;;;;;;4998597;28;20200;-59
2021/04/09 10:49:37;;;;;;;12.33;6.97;;;9.90;99.90;;;;;;4995567;28;20216;-60
2021/04/09 10:52:05;;;;;;;7.73;5.83;;;9.80;99.90;;;;;;4993836;28;20792;-56
2021/04/09 10:54:34;;;;;;;7.23;6.53;;;9.80;99.90;;;;;;5001155;28;20291;-56
2021/04/09 10:57:01;;;;;;;9.10;6.50;;;9.80;99.90;;;;;;5002941;28;20291;-52
2021/04/09 10:59:30;;;;;;;8.93;7.43;;;9.80;99.90;;;;;;4983548;28;20327;-59
2021/04/09 11:01:57;;;;;;;11.30;7.57;;;9.90;99.90;;;;;;4998769;28;20284;-50
2021/04/09 11:04:25;;;;;;;10.63;7.73;;;9.90;99.90;;;;;;4993962;28;20197;-58
2021/04/09 11:06:52;;;;;;;12.87;7.77;;;10.10;99.90;;;;;;4992488;28;20204;-51
2021/04/09 11:09:19;;;;;;;12.33;8.33;;;10.10;99.90;;;;;;5003606;28;20558;-54
2021/04/09 11:11:46;;;;;;;9.00;7.70;;;10.10;99.90;;;;;;4996981;28;20278;-53
2021/04/09 11:14:17;;;;;;;10.43;7.53;;;10.10;99.90;;;;;;4999057;28;20207;-53
2021/04/09 11:16:54;;;;;;;8.93;6.97;;;10.10;99.90;;;;;;4981716;28;20380;-51
2021/04/09 11:19:24;;;;;;;11.30;7.23;;;10.10;99.90;;;;;;4998267;28;20200;-56
2021/04/09 11:21:52;;;;;;;9.67;7.20;;;10.20;99.90;;;;;;5000361;28;20935;-51
2021/04/09 11:24:23;;;;;;;9.47;6.83;;;10.20;99.90;;;;;;4989527;28;20287;-55
2021/04/09 11:26:50;;;;;;;10.13;6.37;;;10.20;99.90;;;;;;4996078;28;20189;-52
2021/04/09 11:29:24;;;;;;;8.00;6.07;;;10.30;99.90;;;;;;4998994;28;20216;-52
2021/04/09 11:31:53;;;;;;;8.13;5.90;;;10.30;99.90;;;;;;4983417;28;20221;-52
2021/04/09 11:34:20;;;;;;;8.40;5.20;;;10.30;99.90;;;;;;4997544;28;20223;-49
2021/04/09 11:36:49;;;;;;;9.33;6.07;;;10.30;99.90;;;;;;4992534;28;21031;-50
2021/04/09 11:39:17;;;;;;;7.13;6.43;;;10.20;99.90;;;;;;4992353;28;20208;-55
2021/04/09 11:41:45;;;;;;;10.47;6.00;;;10.30;99.90;;;;;;4998953;28;20320;-49
2021/04/09 11:44:35;;;;;;;7.30;6.00;;;10.30;99.90;;;;;;5002947;28;20201;-54
2021/04/09 11:47:22;;;;;;;8.30;5.40;;;10.40;99.90;;;;;;4997184;28;20287;-53
2021/04/09 11:50:06;;;;;;;6.13;5.50;;;10.40;99.90;;;;;;4990750;28;20256;-48
2021/04/09 11:55:28;;;;;;;8.87;5.90;;;10.50;99.90;;;;;;5123359;27;20571;-58
2021/04/09 11:57:55;;;;;;;8.77;5.37;;;10.60;99.90;;;;;;5137723;27;20192;-47
2021/04/09 12:00:26;;;;;;;5.37;4.87;;;10.60;99.90;;;;;;5121230;27;20215;-55
2021/04/09 12:02:57;;;;;;;6.13;5.03;;;10.70;99.90;;;;;;5107765;27;20984;-50
2021/04/09 12:05:25;;;;;;;7.43;5.30;;;10.80;99.90;;;;;;5103883;27;20197;-57
2021/04/09 12:07:52;;;;;;;6.63;4.97;;;10.90;99.90;;;;;;5122587;27;20315;-47
2021/04/09 12:10:18;;;;;;;7.17;4.57;;;10.90;99.90;;;;;;5134611;27;20220;-52
2021/04/09 12:12:45;;;;;;;8.60;5.53;;;10.90;99.90;;;;;;5125618;27;20196;-52
2021/04/09 12:15:13;;;;;;;5.80;5.30;;;10.80;99.90;;;;;;5130846;27;20296;-50
2021/04/09 12:17:39;;;;;;;8.53;5.47;;;10.80;99.90;;;;;;5119263;27;20207;-50
2021/04/09 12:20:11;;;;;;;6.50;5.20;;;10.70;99.90;;;;;;5121718;27;20754;-52
2021/04/09 12:22:38;;;;;;;7.20;4.60;;;10.70;99.90;;;;;;5125069;27;20265;-49
2021/04/09 12:25:06;;;;;;;8.17;5.37;;;10.80;99.90;;;;;;5126820;27;20193;-47
2021/04/09 12:27:32;;;;;;;6.47;5.67;;;10.70;99.90;;;;;;5125731;27;20188;-53
2021/04/09 12:30:01;;;;;;;8.17;5.70;;;10.60;99.90;;;;;;5126744;27;20627;-50
2021/04/09 12:32:27;;;;;;;5.20;4.70;;;10.60;99.90;;;;;;5119048;27;20205;-57
2021/04/09 12:34:53;;;;;;;7.90;5.37;;;10.50;99.90;;;;;;5117359;27;20228;-51
2021/04/09 12:37:20;;;;;;;8.53;5.40;;;10.40;99.90;;;;;;5124856;27;20626;-56
2021/04/09 12:39:46;;;;;;;7.57;5.87;;;10.40;99.90;;;;;;5117551;27;20211;-50
2021/04/09 12:42:13;;;;;;;7.67;5.73;;;10.30;99.90;;;;;;5131174;27;20240;-55
2021/04/09 12:44:39;;;;;;;5.93;5.33;;;10.20;99.90;;;;;;5117567;27;20555;-53
2021/04/09 12:47:06;;;;;;;8.00;5.87;;;10.20;99.90;;;;;;5118078;27;20350;-54
2021/04/09 12:49:33;;;;;;;8.53;5.80;;;10.20;99.90;;;;;;5109675;27;20228;-53
2021/04/09 12:51:59;;;;;;;6.43;5.80;;;10.20;99.90;;;;;;5127690;27;20202;-56
2021/04/09 12:54:25;;;;;;;10.93;5.77;;;10.20;99.90;;;;;;5122541;27;20223;-51
2021/04/09 12:56:51;;;;;;;6.73;5.47;;;10.20;99.90;;;;;;5121458;27;20250;-54
2021/04/09 12:59:18;;;;;;;7.97;5.90;;;10.20;99.90;;;;;;5116968;27;20211;-53